createdAt,value
2017-12-29T00:00:43.522Z,2.50
2017-12-29T00:03:10.962Z,2.60
2017-12-29T00:05:38.392Z,2.60
2017-12-29T00:08:05.824Z,2.60
2017-12-29T00:10:33.270Z,2.60
2017-12-29T00:13:00.701Z,2.60
2017-12-29T00:15:28.168Z,2.60
2017-12-29T00:17:55.716Z,2.60
2017-12-29T00:20:24.192Z,2.60
2017-12-29T00:22:51.652Z,2.60
2017-12-29T00:25:19.104Z,2.60
2017-12-29T00:27:46.568Z,2.60
2017-12-29T00:30:14.008Z,2.50
2017-12-29T00:32:41.448Z,2.50
2017-12-29T00:35:09.756Z,2.40
2017-12-29T00:37:37.196Z,2.40
2017-12-29T00:40:04.673Z,2.30
2017-12-29T00:42:32.104Z,2.30
2017-12-29T00:44:59.592Z,2.20
2017-12-29T00:47:27.044Z,2.20
2017-12-29T00:49:54.500Z,2.20
2017-12-29T00:52:21.928Z,2.10
2017-12-29T00:54:49.447Z,2.10
2017-12-29T00:57:16.875Z,2.00
2017-12-29T00:59:44.308Z,2.00
2017-12-29T01:02:11.744Z,2.00
2017-12-29T01:04:39.946Z,2.00
2017-12-29T01:07:07.416Z,2.00
2017-12-29T01:09:34.876Z,2.00
2017-12-29T01:12:02.304Z,2.00
2017-12-29T01:14:29.792Z,2.00
2017-12-29T01:16:57.236Z,1.90
2017-12-29T01:19:24.704Z,1.90
2017-12-29T01:21:52.132Z,1.90
2017-12-29T01:24:19.617Z,1.90
2017-12-29T01:26:47.056Z,1.90
2017-12-29T01:29:14.528Z,1.80
2017-12-29T01:31:41.972Z,1.80
2017-12-29T01:34:09.444Z,1.90
2017-12-29T01:36:36.894Z,1.90
2017-12-29T01:39:04.340Z,1.90
2017-12-29T01:41:31.828Z,1.90
2017-12-29T01:43:59.281Z,1.90
2017-12-29T01:46:26.724Z,1.90
2017-12-29T01:48:54.188Z,1.90
2017-12-29T01:51:21.624Z,2.00
2017-12-29T01:53:49.069Z,2.00
2017-12-29T01:56:17.265Z,2.10
2017-12-29T01:58:44.702Z,2.10
2017-12-29T02:01:12.904Z,2.20
2017-12-29T02:03:41.192Z,2.20
2017-12-29T02:06:08.607Z,2.20
2017-12-29T02:08:36.811Z,2.20
2017-12-29T02:11:04.273Z,2.20
2017-12-29T02:13:31.710Z,2.10
2017-12-29T02:15:59.172Z,2.10
2017-12-29T02:18:26.588Z,2.00
2017-12-29T02:20:54.106Z,2.00
2017-12-29T02:23:21.552Z,1.90
2017-12-29T02:25:48.980Z,1.90
2017-12-29T02:28:17.177Z,1.80
2017-12-29T02:30:44.616Z,1.80
2017-12-29T02:33:12.045Z,1.80
2017-12-29T02:35:40.001Z,1.70
2017-12-29T02:38:07.528Z,1.70
2017-12-29T02:40:34.992Z,1.70
2017-12-29T02:43:02.425Z,1.70
2017-12-29T02:45:29.867Z,1.70
2017-12-29T02:47:58.072Z,1.70
2017-12-29T02:50:25.536Z,1.70
2017-12-29T02:52:53.004Z,1.70
2017-12-29T02:55:20.492Z,1.70
2017-12-29T02:57:48.020Z,1.70
2017-12-29T03:00:15.472Z,1.80
2017-12-29T03:02:42.909Z,1.80
2017-12-29T03:05:10.336Z,1.80
2017-12-29T03:07:38.572Z,1.90
2017-12-29T03:10:06.024Z,1.90
2017-12-29T03:12:33.472Z,1.90
2017-12-29T03:15:00.932Z,1.90
2017-12-29T03:17:28.376Z,1.90
2017-12-29T03:19:55.796Z,1.90
2017-12-29T03:22:24.021Z,1.90
2017-12-29T03:24:51.462Z,1.80
2017-12-29T03:27:18.936Z,1.80
2017-12-29T03:29:46.496Z,1.80
2017-12-29T03:32:13.937Z,1.70
2017-12-29T03:34:41.348Z,1.70
2017-12-29T03:37:09.604Z,1.60
2017-12-29T03:39:37.060Z,1.60
2017-12-29T03:42:04.606Z,1.60
2017-12-29T03:44:32.050Z,1.60
2017-12-29T03:46:59.479Z,1.50
2017-12-29T03:49:26.964Z,1.50
2017-12-29T03:51:54.409Z,1.50
2017-12-29T03:54:21.840Z,1.40
2017-12-29T03:56:50.061Z,1.40
2017-12-29T03:59:17.517Z,1.30
2017-12-29T04:01:44.940Z,1.30
2017-12-29T04:04:12.368Z,1.30
2017-12-29T04:06:40.605Z,1.30
2017-12-29T04:09:08.046Z,1.30
2017-12-29T04:11:35.478Z,1.30
2017-12-29T04:14:03.696Z,1.20
2017-12-29T04:16:31.129Z,1.20
2017-12-29T04:18:58.601Z,1.20
2017-12-29T04:21:26.048Z,1.20
2017-12-29T04:23:53.472Z,1.20
2017-12-29T04:26:21.679Z,1.10
2017-12-29T04:28:49.147Z,1.10
2017-12-29T04:31:16.583Z,1.10
2017-12-29T04:33:44.009Z,1.00
2017-12-29T04:36:12.225Z,1.10
2017-12-29T04:38:39.704Z,1.00
2017-12-29T04:41:07.128Z,1.10
2017-12-29T04:43:34.583Z,1.00
2017-12-29T04:46:02.020Z,1.00
2017-12-29T04:48:30.219Z,1.00
2017-12-29T04:50:57.661Z,1.00
2017-12-29T04:53:25.156Z,1.00
2017-12-29T04:55:52.608Z,1.00
2017-12-29T04:58:20.057Z,1.00
2017-12-29T05:00:47.525Z,0.90
2017-12-29T05:03:14.980Z,0.90
2017-12-29T05:05:42.432Z,0.90
2017-12-29T05:08:09.868Z,0.90
2017-12-29T05:10:37.309Z,0.80
2017-12-29T05:13:05.520Z,0.80
2017-12-29T05:15:32.965Z,0.80
2017-12-29T05:18:00.388Z,0.70
2017-12-29T05:20:28.721Z,0.70
2017-12-29T05:22:56.156Z,0.70
2017-12-29T05:25:23.588Z,0.70
2017-12-29T05:27:51.810Z,0.70
2017-12-29T05:30:19.264Z,0.70
2017-12-29T05:32:46.696Z,0.70
2017-12-29T05:35:14.177Z,0.70
2017-12-29T05:37:41.635Z,0.70
2017-12-29T05:40:09.092Z,0.70
2017-12-29T05:42:36.540Z,0.60
2017-12-29T05:45:03.974Z,0.60
2017-12-29T05:47:31.410Z,0.70
2017-12-29T05:49:59.640Z,0.60
2017-12-29T05:52:27.096Z,0.60
2017-12-29T05:54:54.560Z,0.60
2017-12-29T05:57:22.004Z,0.60
2017-12-29T05:59:49.472Z,0.60
2017-12-29T06:02:16.912Z,0.50
2017-12-29T06:04:44.359Z,0.50
2017-12-29T06:07:11.856Z,0.50
2017-12-29T06:09:39.291Z,0.50
2017-12-29T06:12:06.768Z,0.50
2017-12-29T06:14:34.207Z,0.50
2017-12-29T06:17:01.664Z,0.40
2017-12-29T06:19:29.112Z,0.40
2017-12-29T06:21:56.586Z,0.40
2017-12-29T06:24:24.040Z,0.40
2017-12-29T06:26:51.489Z,0.40
2017-12-29T06:29:18.935Z,0.30
2017-12-29T06:31:46.404Z,0.30
2017-12-29T06:34:13.856Z,0.20
2017-12-29T06:36:41.300Z,0.20
2017-12-29T06:39:08.780Z,0.20
2017-12-29T06:41:36.226Z,0.20
2017-12-29T06:44:04.104Z,0.10
2017-12-29T06:46:31.547Z,0.10
2017-12-29T06:48:59.034Z,0.10
2017-12-29T06:51:26.476Z,0.10
2017-12-29T06:53:53.912Z,0.10
2017-12-29T06:56:21.345Z,0.10
2017-12-29T06:58:49.549Z,0.10
2017-12-29T07:01:16.976Z,0.10
2017-12-29T07:03:45.188Z,0.10
2017-12-29T07:06:12.620Z,0.10
2017-12-29T07:08:40.048Z,0.10
2017-12-29T07:11:07.564Z,0.10
2017-12-29T07:13:35.001Z,0.10
2017-12-29T07:16:02.426Z,0.10
2017-12-29T07:18:30.639Z,0.00
2017-12-29T07:20:58.064Z,0.00
2017-12-29T07:23:26.257Z,0.00
2017-12-29T07:25:53.692Z,0.00
2017-12-29T07:28:21.916Z,0.00
2017-12-29T07:30:49.348Z,0.00
2017-12-29T07:33:16.793Z,0.00
2017-12-29T07:35:44.996Z,0.00
2017-12-29T07:38:12.508Z,0.00
2017-12-29T07:40:40.749Z,0.00
2017-12-29T07:43:08.200Z,0.00
2017-12-29T07:45:35.632Z,0.10
2017-12-29T07:48:03.081Z,0.10
2017-12-29T07:50:30.578Z,0.10
2017-12-29T07:52:58.132Z,0.10
2017-12-29T07:55:26.365Z,0.20
2017-12-29T07:57:54.579Z,0.20
2017-12-29T08:00:22.040Z,0.10
2017-12-29T08:02:49.479Z,0.20
2017-12-29T08:05:17.435Z,0.20
2017-12-29T08:07:44.871Z,0.20
2017-12-29T08:10:13.095Z,0.20
2017-12-29T08:12:40.597Z,0.20
2017-12-29T08:15:08.796Z,0.30
2017-12-29T08:17:36.236Z,0.30
2017-12-29T08:20:05.326Z,0.30
2017-12-29T08:22:33.560Z,0.30
2017-12-29T08:25:01.016Z,0.30
2017-12-29T08:27:28.491Z,0.40
2017-12-29T08:29:55.905Z,0.40
2017-12-29T08:32:23.376Z,0.40
2017-12-29T08:34:50.836Z,0.50
2017-12-29T08:37:18.272Z,0.50
2017-12-29T08:39:45.745Z,0.50
2017-12-29T08:42:13.225Z,0.60
2017-12-29T08:44:40.655Z,0.60
2017-12-29T08:47:08.114Z,0.70
2017-12-29T08:49:35.593Z,0.70
2017-12-29T08:52:03.669Z,0.80
2017-12-29T08:54:31.133Z,0.80
2017-12-29T08:56:59.579Z,0.80
2017-12-29T08:59:27.004Z,0.90
2017-12-29T09:01:55.234Z,0.90
2017-12-29T09:04:22.690Z,0.90
2017-12-29T09:06:50.155Z,1.00
2017-12-29T09:09:17.588Z,1.00
2017-12-29T09:11:45.021Z,1.00
2017-12-29T09:14:12.528Z,1.00
2017-12-29T09:16:39.968Z,1.00
2017-12-29T09:19:07.436Z,1.00
2017-12-29T09:21:34.869Z,1.00
2017-12-29T09:24:02.342Z,1.00
2017-12-29T09:26:29.783Z,1.10
2017-12-29T09:28:57.251Z,1.10
2017-12-29T09:31:24.707Z,1.10
2017-12-29T09:33:52.166Z,1.20
2017-12-29T09:36:19.612Z,1.20
2017-12-29T09:38:47.062Z,1.30
2017-12-29T09:41:14.537Z,1.30
2017-12-29T09:43:41.964Z,1.30
2017-12-29T09:46:09.408Z,1.40
2017-12-29T09:48:37.635Z,1.40
2017-12-29T09:51:05.085Z,1.40
2017-12-29T09:53:32.536Z,1.40
2017-12-29T09:55:59.962Z,1.50
2017-12-29T09:58:27.397Z,1.50
2017-12-29T10:00:55.606Z,1.60
2017-12-29T10:03:23.036Z,1.50
2017-12-29T10:05:51.285Z,1.60
2017-12-29T10:08:18.707Z,1.60
2017-12-29T10:10:46.173Z,1.70
2017-12-29T10:13:13.610Z,1.70
2017-12-29T10:15:41.048Z,1.80
2017-12-29T10:18:09.254Z,1.80
2017-12-29T10:20:36.692Z,1.80
2017-12-29T10:23:04.184Z,1.90
2017-12-29T10:25:31.621Z,1.90
2017-12-29T10:27:59.068Z,1.90
2017-12-29T10:30:27.269Z,2.10
2017-12-29T10:32:54.704Z,2.10
2017-12-29T10:35:22.128Z,2.20
2017-12-29T10:37:50.352Z,2.30
2017-12-29T10:40:17.764Z,2.30
2017-12-29T10:42:45.961Z,2.40
2017-12-29T10:45:13.440Z,2.40
2017-12-29T10:47:40.875Z,2.40
2017-12-29T10:50:08.365Z,2.50
2017-12-29T10:52:35.804Z,2.50
2017-12-29T10:55:03.258Z,2.50
2017-12-29T10:57:30.732Z,2.60
2017-12-29T10:59:58.172Z,2.60
2017-12-29T11:02:25.644Z,2.60
2017-12-29T11:04:53.069Z,2.70
2017-12-29T11:07:20.556Z,2.70
2017-12-29T11:09:48.013Z,2.70
2017-12-29T11:12:15.465Z,2.70
2017-12-29T11:14:43.018Z,2.80
2017-12-29T11:17:10.488Z,2.80
2017-12-29T11:19:37.927Z,2.90
2017-12-29T11:22:05.388Z,2.80
2017-12-29T11:24:32.812Z,2.90
2017-12-29T11:27:01.018Z,2.90
2017-12-29T11:29:28.457Z,2.90
2017-12-29T11:31:55.940Z,2.90
2017-12-29T11:34:23.378Z,3.00
2017-12-29T11:36:50.860Z,3.00
2017-12-29T11:39:18.295Z,3.10
2017-12-29T11:41:45.719Z,3.10
2017-12-29T11:44:13.944Z,3.20
2017-12-29T11:46:41.412Z,3.10
2017-12-29T11:49:08.864Z,3.20
2017-12-29T11:51:36.316Z,3.20
2017-12-29T11:54:03.752Z,3.20
2017-12-29T11:56:31.176Z,3.20
2017-12-29T11:58:59.380Z,3.20
2017-12-29T12:01:26.876Z,3.10
2017-12-29T12:03:54.416Z,3.10
2017-12-29T12:06:21.884Z,3.10
2017-12-29T12:08:49.308Z,3.10
2017-12-29T12:11:16.732Z,3.00
2017-12-29T12:13:44.172Z,3.00
2017-12-29T12:16:11.644Z,2.90
2017-12-29T12:18:39.372Z,2.90
2017-12-29T12:21:06.824Z,2.80
2017-12-29T12:23:34.277Z,2.80
2017-12-29T12:26:01.705Z,2.80
2017-12-29T12:28:29.160Z,2.70
2017-12-29T12:30:57.352Z,2.70
2017-12-29T12:33:24.780Z,2.70
2017-12-29T12:35:52.995Z,2.70
2017-12-29T12:38:20.420Z,2.70
2017-12-29T12:40:48.624Z,2.70
2017-12-29T12:43:16.082Z,2.60
2017-12-29T12:45:43.502Z,2.60
2017-12-29T12:48:11.816Z,2.60
2017-12-29T12:50:39.233Z,2.60
2017-12-29T12:53:07.432Z,2.60
2017-12-29T12:55:34.864Z,2.50
2017-12-29T12:58:03.064Z,2.50
2017-12-29T13:00:30.488Z,2.50
2017-12-29T13:02:58.716Z,2.50
2017-12-29T13:05:26.184Z,2.50
2017-12-29T13:07:53.612Z,2.50
2017-12-29T13:10:21.036Z,2.50
2017-12-29T13:12:49.240Z,2.50
2017-12-29T13:15:16.672Z,2.50
2017-12-29T13:17:44.896Z,2.50
2017-12-29T13:20:12.346Z,2.50
2017-12-29T13:22:39.825Z,2.50
2017-12-29T13:25:07.360Z,2.40
2017-12-29T13:27:34.780Z,2.40
2017-12-29T13:30:11.012Z,2.30
2017-12-29T13:32:42.901Z,2.30
2017-12-29T13:35:11.129Z,2.30
2017-12-29T13:37:38.679Z,2.30
2017-12-29T13:40:06.112Z,2.30
2017-12-29T13:42:33.563Z,2.20
2017-12-29T13:45:01.748Z,2.20
2017-12-29T13:47:29.186Z,2.20
2017-12-29T13:49:57.408Z,2.10
2017-12-29T13:52:24.860Z,2.10
2017-12-29T13:54:52.296Z,2.10
2017-12-29T13:57:19.773Z,2.10
2017-12-29T13:59:47.180Z,2.10
2017-12-29T14:02:15.380Z,2.10
2017-12-29T14:04:42.805Z,2.10
2017-12-29T14:07:10.224Z,2.10
2017-12-29T14:09:37.663Z,2.10
2017-12-29T14:12:05.081Z,2.10
2017-12-29T14:14:33.304Z,2.00
2017-12-29T14:17:00.770Z,1.90
2017-12-29T14:19:28.211Z,1.90
2017-12-29T14:21:55.647Z,1.80
2017-12-29T14:24:23.848Z,1.80
2017-12-29T14:26:51.281Z,1.80
2017-12-29T14:29:18.716Z,1.80
2017-12-29T14:31:46.944Z,1.70
2017-12-29T14:34:14.399Z,1.70
2017-12-29T14:36:41.828Z,1.70
2017-12-29T14:39:09.364Z,1.70
2017-12-29T14:41:37.548Z,1.70
2017-12-29T14:44:05.757Z,1.70
2017-12-29T14:46:33.196Z,1.70
2017-12-29T14:49:01.709Z,1.70
2017-12-29T14:51:29.136Z,1.70
2017-12-29T14:53:56.576Z,1.70
2017-12-29T14:56:24.772Z,1.80
2017-12-29T14:58:52.199Z,1.80
2017-12-29T15:01:20.430Z,1.80
2017-12-29T15:03:47.848Z,1.80
2017-12-29T15:06:15.338Z,1.80
2017-12-29T15:08:42.794Z,1.80
2017-12-29T15:11:10.248Z,1.90
2017-12-29T15:13:37.681Z,1.90
2017-12-29T15:16:05.164Z,1.90
2017-12-29T15:18:32.616Z,1.90
2017-12-29T15:21:00.084Z,1.90
2017-12-29T15:23:27.655Z,1.90
2017-12-29T15:25:55.064Z,1.90
2017-12-29T15:28:22.496Z,1.90
2017-12-29T15:30:50.752Z,2.00
2017-12-29T15:33:18.188Z,2.00
2017-12-29T15:35:45.638Z,2.00
2017-12-29T15:38:13.103Z,2.00
2017-12-29T15:40:40.550Z,2.10
2017-12-29T15:43:07.966Z,2.10
2017-12-29T15:45:36.180Z,2.20
2017-12-29T15:48:03.652Z,2.20
2017-12-29T15:50:31.085Z,2.20
2017-12-29T15:52:58.530Z,2.30
2017-12-29T15:55:26.030Z,2.30
2017-12-29T15:57:53.586Z,2.40
2017-12-29T16:00:21.036Z,2.40
2017-12-29T16:02:48.500Z,2.50
2017-12-29T16:05:15.938Z,2.50
2017-12-29T16:07:43.385Z,2.60
2017-12-29T16:10:10.875Z,2.60
2017-12-29T16:12:38.350Z,2.70
2017-12-29T16:15:05.785Z,2.70
2017-12-29T16:17:33.252Z,2.80
2017-12-29T16:20:00.744Z,2.80
2017-12-29T16:22:28.976Z,2.90
2017-12-29T16:24:56.475Z,2.90
2017-12-29T16:27:23.904Z,2.90
2017-12-29T16:29:51.340Z,2.90
2017-12-29T16:32:18.764Z,3.00
2017-12-29T16:34:46.204Z,3.00
2017-12-29T16:37:14.419Z,3.20
2017-12-29T16:39:41.880Z,3.10
2017-12-29T16:42:09.348Z,3.20
2017-12-29T16:44:36.808Z,3.20
2017-12-29T16:47:04.241Z,3.30
2017-12-29T16:49:31.660Z,3.30
2017-12-29T16:51:59.911Z,3.30
2017-12-29T16:54:27.378Z,3.30
2017-12-29T16:56:54.791Z,3.30
2017-12-29T16:59:22.273Z,3.30
2017-12-29T17:01:49.716Z,3.30
2017-12-29T17:04:17.149Z,3.30
2017-12-29T17:06:44.591Z,3.40
2017-12-29T17:09:12.804Z,3.40
2017-12-29T17:11:40.254Z,3.40
2017-12-29T17:14:07.673Z,3.40
2017-12-29T17:16:35.871Z,3.40
2017-12-29T17:19:03.363Z,3.40
2017-12-29T17:21:30.805Z,3.40
2017-12-29T17:23:58.271Z,3.50
2017-12-29T17:26:25.712Z,3.40
2017-12-29T17:28:53.157Z,3.50
2017-12-29T17:31:20.608Z,3.50
2017-12-29T17:33:48.098Z,3.60
2017-12-29T17:36:15.548Z,3.60
2017-12-29T17:38:43.012Z,3.60
2017-12-29T17:41:10.464Z,3.60
2017-12-29T17:43:37.920Z,3.60
2017-12-29T17:46:05.362Z,3.60
2017-12-29T17:48:32.836Z,3.60
2017-12-29T17:51:00.379Z,3.60
2017-12-29T17:53:27.848Z,3.70
2017-12-29T17:55:55.280Z,3.70
2017-12-29T17:58:22.857Z,3.80
2017-12-29T18:00:50.286Z,3.80
2017-12-29T18:03:18.500Z,3.90
2017-12-29T18:05:45.956Z,3.90
2017-12-29T18:08:13.384Z,3.90
2017-12-29T18:10:40.859Z,3.90
2017-12-29T18:13:08.309Z,3.90
2017-12-29T18:15:35.805Z,3.90
2017-12-29T18:18:03.245Z,3.90
2017-12-29T18:20:30.685Z,3.90
2017-12-29T18:22:58.124Z,3.90
2017-12-29T18:25:25.572Z,3.90
2017-12-29T18:27:53.068Z,3.90
2017-12-29T18:30:20.517Z,3.90
2017-12-29T18:32:47.941Z,4.00
2017-12-29T18:35:16.350Z,4.00
2017-12-29T18:37:43.756Z,4.00
2017-12-29T18:40:11.367Z,4.00
2017-12-29T18:42:38.792Z,4.00
2017-12-29T18:45:06.996Z,4.00
2017-12-29T18:47:34.428Z,4.00
2017-12-29T18:50:01.879Z,4.00
2017-12-29T18:52:30.109Z,4.00
2017-12-29T18:54:57.552Z,4.00
2017-12-29T18:57:25.013Z,4.00
2017-12-29T18:59:52.479Z,4.00
2017-12-29T19:02:19.969Z,4.10
2017-12-29T19:04:47.414Z,4.10
2017-12-29T19:07:14.935Z,4.10
2017-12-29T19:09:42.361Z,4.10
2017-12-29T19:12:10.684Z,4.20
2017-12-29T19:14:38.118Z,4.10
2017-12-29T19:17:05.552Z,4.20
2017-12-29T19:19:33.832Z,4.20
2017-12-29T19:22:01.332Z,4.20
2017-12-29T19:24:28.783Z,4.20
2017-12-29T19:26:56.250Z,4.30
2017-12-29T19:29:23.668Z,4.30
2017-12-29T19:31:51.152Z,4.30
2017-12-29T19:34:18.596Z,4.30
2017-12-29T19:36:46.036Z,4.40
2017-12-29T19:39:13.468Z,4.40
2017-12-29T19:41:41.676Z,4.40
2017-12-29T19:44:09.110Z,4.40
2017-12-29T19:46:37.306Z,4.50
2017-12-29T19:49:04.789Z,4.50
2017-12-29T19:51:32.221Z,4.50
2017-12-29T19:53:59.704Z,4.60
2017-12-29T19:56:27.152Z,4.70
2017-12-29T19:58:54.625Z,4.60
2017-12-29T20:01:22.059Z,4.70
2017-12-29T20:03:49.504Z,4.70
2017-12-29T20:06:16.944Z,4.80
2017-12-29T20:08:45.147Z,4.90
2017-12-29T20:11:12.613Z,4.90
2017-12-29T20:13:40.112Z,4.90
2017-12-29T20:16:07.556Z,4.90
2017-12-29T20:18:35.104Z,5.00
2017-12-29T20:21:02.563Z,5.00
2017-12-29T20:23:30.007Z,5.00
2017-12-29T20:25:57.462Z,5.00
2017-12-29T20:28:24.908Z,5.10
2017-12-29T20:30:52.340Z,5.10
2017-12-29T20:33:20.553Z,5.10
2017-12-29T20:35:48.018Z,5.10
2017-12-29T20:38:15.557Z,5.20
2017-12-29T20:40:43.014Z,5.10
2017-12-29T20:43:10.436Z,5.20
2017-12-29T20:45:38.655Z,5.20
2017-12-29T20:48:06.152Z,5.20
2017-12-29T20:50:33.529Z,5.20
2017-12-29T20:53:01.744Z,5.30
2017-12-29T20:55:29.310Z,5.20
2017-12-29T20:57:56.853Z,5.30
2017-12-29T21:00:24.260Z,5.30
2017-12-29T21:02:51.700Z,5.30
2017-12-29T21:05:19.128Z,5.40
2017-12-29T21:07:46.571Z,5.30
2017-12-29T21:10:14.009Z,5.30
2017-12-29T21:12:42.314Z,5.40
2017-12-29T21:15:09.788Z,5.40
2017-12-29T21:17:37.253Z,5.40
2017-12-29T21:20:04.668Z,5.50
2017-12-29T21:22:32.233Z,5.50
2017-12-29T21:24:59.776Z,5.50
2017-12-29T21:27:27.291Z,5.50
2017-12-29T21:29:54.715Z,5.60
2017-12-29T21:32:22.211Z,5.50
2017-12-29T21:34:49.651Z,5.50
2017-12-29T21:37:17.088Z,5.50
2017-12-29T21:39:44.516Z,5.50
2017-12-29T21:42:12.822Z,5.50
2017-12-29T21:44:40.293Z,5.50
2017-12-29T21:47:07.756Z,5.50
2017-12-29T21:49:35.180Z,5.50
2017-12-29T21:52:02.660Z,5.50
2017-12-29T21:54:30.211Z,5.50
2017-12-29T21:56:57.672Z,5.50
2017-12-29T21:59:25.108Z,5.50
2017-12-29T22:01:52.620Z,5.50
2017-12-29T22:04:20.052Z,5.50
2017-12-29T22:06:47.497Z,5.50
2017-12-29T22:09:14.928Z,5.50
2017-12-29T22:11:43.140Z,5.50
2017-12-29T22:14:10.569Z,5.40
2017-12-29T22:16:38.070Z,5.50
2017-12-29T22:19:05.508Z,5.50
2017-12-29T22:21:32.943Z,5.50
2017-12-29T22:24:00.380Z,5.50
2017-12-29T22:26:28.576Z,5.50
2017-12-29T22:28:56.043Z,5.40
2017-12-29T22:31:23.480Z,5.50
2017-12-29T22:33:50.968Z,5.50
2017-12-29T22:36:18.442Z,5.50
2017-12-29T22:38:46.087Z,5.50
2017-12-29T22:41:13.516Z,5.50
2017-12-29T22:43:40.999Z,5.50
2017-12-29T22:46:08.432Z,5.50
2017-12-29T22:48:35.861Z,5.50
2017-12-29T22:51:04.052Z,5.60
2017-12-29T22:53:31.508Z,5.60
2017-12-29T22:55:59.724Z,5.60
2017-12-29T22:58:27.184Z,5.60
2017-12-29T23:00:54.621Z,5.60
2017-12-29T23:03:22.070Z,5.60
2017-12-29T23:05:50.244Z,5.60
2017-12-29T23:08:17.688Z,5.60
2017-12-29T23:10:45.177Z,5.60
2017-12-29T23:13:12.613Z,5.70
2017-12-29T23:15:40.096Z,5.70
2017-12-29T23:18:07.576Z,5.70
2017-12-29T23:20:34.980Z,5.60
2017-12-29T23:23:02.465Z,5.70
2017-12-29T23:25:29.925Z,5.70
2017-12-29T23:27:57.380Z,5.70
2017-12-29T23:30:24.846Z,5.70
2017-12-29T23:32:52.286Z,5.70
2017-12-29T23:35:19.700Z,5.70
2017-12-29T23:37:47.915Z,5.70
2017-12-29T23:40:15.374Z,5.70
2017-12-29T23:42:42.777Z,5.70
2017-12-29T23:45:10.212Z,5.70
2017-12-29T23:47:37.668Z,5.70
2017-12-29T23:50:05.085Z,5.70
2017-12-29T23:52:32.536Z,5.70
2017-12-29T23:54:59.960Z,5.70
2017-12-29T23:57:27.480Z,5.70
2017-12-29T23:59:54.940Z,5.70
